Time;durP1;ratioP1;P1;durP2;ratioP2;P2;SDS_P1;SDS_P2;PMS_P1;PMS_P2;Temp;Humidity;BMP_temperature;BMP_pressure;BME280_temperature;BME280_humidity;BME280_pressure;Samples;Min_cycle;Max_cycle;Signal;HPM_P1;HPM_P2
2022/08/26 00:01:51;;;;;;;2.23;1.30;;;;;;;;;;5120619;28;20216;-63
2022/08/26 00:04:20;;;;;;;2.47;2.03;;;;;;;;;;5119437;28;20268;-63
2022/08/26 00:06:48;;;;;;;2.73;1.40;;;;;;;;;;5118329;28;20207;-63
2022/08/26 00:09:18;;;;;;;3.80;1.50;;;;;;;;;;5118626;28;20261;-63
2022/08/26 00:11:46;;;;;;;2.97;1.37;;;;;;;;;;5118526;27;20232;-62
2022/08/26 00:14:14;;;;;;;2.67;1.37;;;;;;;;;;5118381;28;20251;-63
2022/08/26 00:16:43;;;;;;;2.37;1.27;;;;;;;;;;5115765;28;20221;-63
2022/08/26 00:19:15;;;;;;;2.20;2.00;;;;;;;;;;5098553;28;20236;-63
2022/08/26 00:21:43;;;;;;;2.70;1.50;;;;;;;;;;5117734;28;20252;-63
2022/08/26 00:24:12;;;;;;;3.73;1.40;;;;;;;;;;5108575;28;20250;-63
2022/08/26 00:26:41;;;;;;;1.40;1.30;;;;;;;;;;5099633;28;20213;-63
2022/08/26 00:29:09;;;;;;;2.33;1.30;;;;;;;;;;5099702;28;20208;-62
2022/08/26 00:31:37;;;;;;;1.40;1.17;;;;;;;;;;5099705;28;20243;-62
2022/08/26 00:34:06;;;;;;;3.73;1.47;;;;;;;;;;5099572;28;20229;-63
2022/08/26 00:36:38;;;;;;;2.03;1.30;;;;;;;;;;5099306;28;20208;-63
2022/08/26 00:39:07;;;;;;;2.67;1.87;;;;;;;;;;5113207;28;20675;-63
2022/08/26 00:41:35;;;;;;;1.60;1.43;;;;;;;;;;5120019;28;20278;-63
2022/08/26 00:44:05;;;;;;;3.07;1.30;;;;;;;;;;5119450;28;20279;-62
2022/08/26 00:46:34;;;;;;;2.90;1.30;;;;;;;;;;5119613;28;20231;-62
2022/08/26 00:49:05;;;;;;;2.70;1.30;;;;;;;;;;5119438;28;20725;-62
2022/08/26 00:51:42;;;;;;;3.10;1.23;;;;;;;;;;5119333;28;20238;-63
2022/08/26 00:54:11;;;;;;;1.70;1.20;;;;;;;;;;5119602;28;20255;-63
2022/08/26 00:56:42;;;;;;;1.40;1.30;;;;;;;;;;5119344;28;20244;-63
2022/08/26 00:59:12;;;;;;;5.90;1.60;;;;;;;;;;5119558;28;20208;-63
2022/08/26 01:01:43;;;;;;;1.47;1.00;;;;;;;;;;5119428;28;20262;-63
2022/08/26 01:04:14;;;;;;;2.53;1.63;;;;;;;;;;5119252;28;20227;-62
2022/08/26 01:06:43;;;;;;;1.60;1.50;;;;;;;;;;5118895;28;20579;-63
2022/08/26 01:09:11;;;;;;;2.27;1.43;;;;;;;;;;5119415;28;20204;-63
2022/08/26 01:11:39;;;;;;;2.67;1.40;;;;;;;;;;5119131;28;20282;-63
2022/08/26 01:14:08;;;;;;;2.10;1.50;;;;;;;;;;5119058;28;21461;-63
2022/08/26 01:16:37;;;;;;;2.20;1.40;;;;;;;;;;5116775;28;20197;-63
2022/08/26 01:19:14;;;;;;;1.20;1.10;;;;;;;;;;5098853;28;20250;-62
2022/08/26 01:21:45;;;;;;;1.93;1.47;;;;;;;;;;5116383;28;20229;-63
2022/08/26 01:24:16;;;;;;;2.93;1.03;;;;;;;;;;5106736;28;20228;-62
2022/08/26 01:26:45;;;;;;;2.67;1.27;;;;;;;;;;5098593;28;20262;-62
2022/08/26 01:29:17;;;;;;;1.33;1.20;;;;;;;;;;5098606;28;20295;-63
2022/08/26 01:31:48;;;;;;;5.00;1.30;;;;;;;;;;5098648;28;20207;-63
2022/08/26 01:34:20;;;;;;;2.13;1.83;;;;;;;;;;5098466;28;20222;-63
2022/08/26 01:36:49;;;;;;;2.13;1.27;;;;;;;;;;5098248;28;20209;-62
2022/08/26 01:39:20;;;;;;;2.07;1.50;;;;;;;;;;5114278;28;20216;-62
2022/08/26 01:41:48;;;;;;;1.43;1.10;;;;;;;;;;5118683;28;20699;-63
2022/08/26 01:44:22;;;;;;;1.53;1.20;;;;;;;;;;5118704;28;20225;-62
2022/08/26 01:46:51;;;;;;;1.80;1.47;;;;;;;;;;5118896;28;20229;-62
2022/08/26 01:49:20;;;;;;;1.87;1.10;;;;;;;;;;5118751;28;20234;-62
2022/08/26 01:51:50;;;;;;;1.77;1.10;;;;;;;;;;5116231;28;20229;-62
2022/08/26 01:54:20;;;;;;;1.40;1.10;;;;;;;;;;5118139;28;20599;-62
2022/08/26 01:56:50;;;;;;;1.40;1.30;;;;;;;;;;5118287;28;20700;-63
2022/08/26 01:59:19;;;;;;;1.53;1.20;;;;;;;;;;5111299;28;20197;-62
2022/08/26 02:01:47;;;;;;;1.20;1.10;;;;;;;;;;5118303;28;20247;-63
2022/08/26 02:04:17;;;;;;;1.77;1.50;;;;;;;;;;5118033;28;20260;-63
2022/08/26 02:06:47;;;;;;;2.50;1.30;;;;;;;;;;5118061;28;20206;-63
2022/08/26 02:09:16;;;;;;;2.47;1.33;;;;;;;;;;5118255;28;20197;-62
2022/08/26 02:11:45;;;;;;;1.50;1.40;;;;;;;;;;5118231;28;20232;-63
2022/08/26 02:14:16;;;;;;;1.83;1.40;;;;;;;;;;5123151;28;20228;-62
2022/08/26 02:16:46;;;;;;;1.97;1.30;;;;;;;;;;5121328;27;20199;-63
2022/08/26 02:19:15;;;;;;;1.60;1.50;;;;;;;;;;5104403;28;20544;-62
2022/08/26 02:21:45;;;;;;;2.07;1.50;;;;;;;;;;5122526;28;20258;-63
2022/08/26 02:24:20;;;;;;;2.10;1.37;;;;;;;;;;5112651;27;20262;-63
2022/08/26 02:26:51;;;;;;;3.20;1.80;;;;;;;;;;5104653;28;20212;-63
2022/08/26 02:29:22;;;;;;;5.40;1.30;;;;;;;;;;5104656;28;20212;-62
2022/08/26 02:31:51;;;;;;;4.80;1.70;;;;;;;;;;5104824;28;20202;-62
2022/08/26 02:34:20;;;;;;;9.53;1.50;;;;;;;;;;5104479;28;20259;-62
2022/08/26 02:36:49;;;;;;;1.67;1.40;;;;;;;;;;5104456;28;20243;-63
2022/08/26 02:39:17;;;;;;;2.93;1.57;;;;;;;;;;5119949;28;20256;-62
2022/08/26 02:41:49;;;;;;;3.47;1.80;;;;;;;;;;5124978;27;20227;-65
2022/08/26 02:44:19;;;;;;;1.57;1.40;;;;;;;;;;5124620;27;20266;-63
2022/08/26 02:46:47;;;;;;;3.13;1.30;;;;;;;;;;5124785;27;20234;-62
2022/08/26 02:49:15;;;;;;;1.30;1.20;;;;;;;;;;5124680;27;20272;-62
2022/08/26 02:51:44;;;;;;;3.33;1.30;;;;;;;;;;5124511;27;20318;-63
2022/08/26 02:54:12;;;;;;;1.80;1.70;;;;;;;;;;5124505;27;20227;-62
2022/08/26 02:56:40;;;;;;;1.40;1.30;;;;;;;;;;5124809;27;20215;-62
2022/08/26 02:59:08;;;;;;;3.53;1.20;;;;;;;;;;5124556;27;20761;-63
2022/08/26 03:01:39;;;;;;;2.27;1.50;;;;;;;;;;5124825;27;20249;-63
2022/08/26 03:04:09;;;;;;;3.03;1.53;;;;;;;;;;5124471;27;20610;-62
2022/08/26 03:06:38;;;;;;;2.87;1.40;;;;;;;;;;5124584;27;20203;-63
2022/08/26 03:09:08;;;;;;;1.73;1.40;;;;;;;;;;5124799;27;20297;-62
2022/08/26 03:11:40;;;;;;;2.93;2.10;;;;;;;;;;5124404;27;20206;-62
2022/08/26 03:14:10;;;;;;;2.00;1.37;;;;;;;;;;5124433;28;20270;-62
2022/08/26 03:16:40;;;;;;;2.03;1.40;;;;;;;;;;5121913;28;20202;-63
2022/08/26 03:19:08;;;;;;;1.93;1.50;;;;;;;;;;5103978;28;20227;-63
2022/08/26 03:21:37;;;;;;;1.60;1.50;;;;;;;;;;5120946;28;20224;-62
2022/08/26 03:24:05;;;;;;;4.23;1.43;;;;;;;;;;5113563;27;20257;-63
2022/08/26 03:26:33;;;;;;;1.30;1.03;;;;;;;;;;5099633;28;20295;-62
2022/08/26 03:31:50;;;;;;;3.20;2.07;;;;;;;;;;5107886;28;20233;-62
2022/08/26 03:34:19;;;;;;;3.97;1.50;;;;;;;;;;5119372;28;20309;-62
2022/08/26 03:36:49;;;;;;;1.73;1.33;;;;;;;;;;5107255;28;20572;-63
2022/08/26 03:39:17;;;;;;;3.10;1.50;;;;;;;;;;5117216;28;20204;-62
2022/08/26 03:41:45;;;;;;;4.70;2.10;;;;;;;;;;5119622;28;20232;-63
2022/08/26 03:44:13;;;;;;;1.87;1.63;;;;;;;;;;5120812;28;20319;-62
2022/08/26 03:46:41;;;;;;;4.30;1.60;;;;;;;;;;5120712;28;20871;-63
2022/08/26 03:49:12;;;;;;;5.50;1.63;;;;;;;;;;5120583;28;20205;-63
2022/08/26 03:51:41;;;;;;;1.87;1.40;;;;;;;;;;5119511;27;20759;-62
2022/08/26 03:54:11;;;;;;;3.30;1.47;;;;;;;;;;5120321;28;20314;-62
2022/08/26 03:56:39;;;;;;;2.70;1.50;;;;;;;;;;5120270;28;20265;-62
2022/08/26 03:59:08;;;;;;;3.53;1.30;;;;;;;;;;5120568;28;20217;-63
2022/08/26 04:01:36;;;;;;;1.47;1.30;;;;;;;;;;5120520;28;20254;-63
2022/08/26 04:04:04;;;;;;;2.23;1.73;;;;;;;;;;5120580;28;20226;-62
2022/08/26 04:06:36;;;;;;;2.23;1.40;;;;;;;;;;5118723;28;20240;-62
2022/08/26 04:09:06;;;;;;;2.23;1.50;;;;;;;;;;5118686;28;20234;-63
2022/08/26 04:11:35;;;;;;;2.17;1.30;;;;;;;;;;5118236;28;20324;-63
2022/08/26 04:14:07;;;;;;;5.37;1.60;;;;;;;;;;5118573;28;20229;-62
2022/08/26 04:16:35;;;;;;;4.00;1.50;;;;;;;;;;5116586;28;20236;-63
2022/08/26 04:19:03;;;;;;;4.80;1.97;;;;;;;;;;5098310;28;20208;-63
2022/08/26 04:21:31;;;;;;;2.50;1.50;;;;;;;;;;5115424;28;20202;-61
2022/08/26 04:24:01;;;;;;;3.00;1.57;;;;;;;;;;5110018;28;20266;-62
2022/08/26 04:26:35;;;;;;;4.33;1.40;;;;;;;;;;5099431;28;20229;-63
2022/08/26 04:29:07;;;;;;;1.77;1.50;;;;;;;;;;5099784;28;20202;-62
2022/08/26 04:31:36;;;;;;;2.53;1.60;;;;;;;;;;5099403;28;20251;-62
2022/08/26 04:34:05;;;;;;;3.43;1.60;;;;;;;;;;5099613;28;20239;-63
2022/08/26 04:36:33;;;;;;;3.00;1.70;;;;;;;;;;5098755;28;20661;-63
2022/08/26 04:39:04;;;;;;;1.97;1.40;;;;;;;;;;5112920;28;20298;-62
2022/08/26 04:41:32;;;;;;;1.70;1.60;;;;;;;;;;5119799;28;20662;-63
2022/08/26 04:44:01;;;;;;;3.50;1.50;;;;;;;;;;5119807;28;20262;-63
2022/08/26 04:46:29;;;;;;;3.60;1.80;;;;;;;;;;5119866;28;20208;-62
2022/08/26 04:48:57;;;;;;;5.73;1.80;;;;;;;;;;5119838;28;20203;-62
2022/08/26 04:51:27;;;;;;;2.53;1.80;;;;;;;;;;5119349;28;20238;-62
2022/08/26 04:53:55;;;;;;;2.83;1.70;;;;;;;;;;5119563;28;20225;-62
2022/08/26 04:56:26;;;;;;;1.90;1.50;;;;;;;;;;5119638;28;20207;-63
2022/08/26 04:58:55;;;;;;;2.10;1.60;;;;;;;;;;5119320;28;20210;-63
2022/08/26 05:01:23;;;;;;;3.83;1.90;;;;;;;;;;5119703;28;20211;-62
2022/08/26 05:03:51;;;;;;;1.97;1.87;;;;;;;;;;5119041;28;20270;-62
2022/08/26 05:06:19;;;;;;;2.90;1.80;;;;;;;;;;5118713;28;20550;-63
2022/08/26 05:08:48;;;;;;;4.57;1.80;;;;;;;;;;5119003;28;20238;-63
2022/08/26 05:11:16;;;;;;;2.90;1.70;;;;;;;;;;5119256;28;20264;-62
2022/08/26 05:13:46;;;;;;;3.93;1.90;;;;;;;;;;5118764;28;20770;-62
2022/08/26 05:16:15;;;;;;;2.20;1.70;;;;;;;;;;5119014;28;20197;-62
2022/08/26 05:18:44;;;;;;;4.77;1.87;;;;;;;;;;5099095;28;20202;-63
2022/08/26 05:21:16;;;;;;;1.87;1.50;;;;;;;;;;5111825;28;20233;-63
2022/08/26 05:23:45;;;;;;;1.80;1.70;;;;;;;;;;5110962;28;20258;-62
2022/08/26 05:26:13;;;;;;;3.33;1.80;;;;;;;;;;5098603;28;20253;-63
2022/08/26 05:28:43;;;;;;;2.03;1.50;;;;;;;;;;5098455;28;20587;-63
2022/08/26 05:31:14;;;;;;;1.70;1.60;;;;;;;;;;5098470;28;20213;-63
2022/08/26 05:33:45;;;;;;;1.70;1.60;;;;;;;;;;5098434;28;20306;-63
2022/08/26 05:36:15;;;;;;;1.93;1.70;;;;;;;;;;5097969;28;20647;-62
2022/08/26 05:38:43;;;;;;;1.40;1.30;;;;;;;;;;5108694;28;20639;-62
2022/08/26 05:41:16;;;;;;;4.60;1.50;;;;;;;;;;5118332;28;20206;-63
2022/08/26 05:43:45;;;;;;;1.60;1.50;;;;;;;;;;5118346;28;20238;-63
2022/08/26 05:46:15;;;;;;;3.40;1.57;;;;;;;;;;5118394;28;20213;-63
2022/08/26 05:48:43;;;;;;;3.50;1.83;;;;;;;;;;5117669;28;20568;-62
2022/08/26 05:51:11;;;;;;;2.27;1.53;;;;;;;;;;5118146;28;20208;-63
2022/08/26 05:53:40;;;;;;;2.33;1.80;;;;;;;;;;5118735;27;20234;-63
2022/08/26 05:56:23;;;;;;;3.43;1.53;;;;;;;;;;5118686;28;20205;-63
2022/08/26 05:58:51;;;;;;;4.87;1.80;;;;;;;;;;5118596;28;20212;-62
2022/08/26 06:01:21;;;;;;;2.33;1.60;;;;;;;;;;5118362;28;20206;-62
2022/08/26 06:03:52;;;;;;;2.33;1.50;;;;;;;;;;5118432;28;20229;-62
2022/08/26 06:06:21;;;;;;;4.17;1.80;;;;;;;;;;5118088;28;20627;-62
2022/08/26 06:08:56;;;;;;;6.67;1.90;;;;;;;;;;5118365;28;20269;-63
2022/08/26 06:11:26;;;;;;;1.60;1.50;;;;;;;;;;5118211;28;20232;-62
2022/08/26 06:13:57;;;;;;;2.27;1.53;;;;;;;;;;5118155;28;20224;-62
2022/08/26 06:16:33;;;;;;;2.00;1.50;;;;;;;;;;5117957;28;20193;-62
2022/08/26 06:19:02;;;;;;;1.83;1.53;;;;;;;;;;5097898;28;20202;-62
2022/08/26 06:21:38;;;;;;;3.53;1.73;;;;;;;;;;5114547;28;20232;-62
2022/08/26 06:26:55;;;;;;;3.77;2.03;;;;;;;;;;5097563;28;20220;-62
2022/08/26 06:29:25;;;;;;;2.83;1.97;;;;;;;;;;5097777;28;20264;-62
2022/08/26 06:31:55;;;;;;;1.53;1.43;;;;;;;;;;5097924;28;20234;-62
2022/08/26 06:34:23;;;;;;;1.97;1.80;;;;;;;;;;5097821;28;20226;-62
2022/08/26 06:36:58;;;;;;;2.07;1.70;;;;;;;;;;5097631;28;20206;-62
2022/08/26 06:39:28;;;;;;;3.53;1.70;;;;;;;;;;5114579;28;20212;-63
2022/08/26 06:41:57;;;;;;;3.00;2.00;;;;;;;;;;5118069;28;20216;-62
2022/08/26 06:44:26;;;;;;;2.33;1.70;;;;;;;;;;5117943;28;20231;-63
2022/08/26 06:46:56;;;;;;;3.20;1.60;;;;;;;;;;5118156;28;20239;-62
2022/08/26 06:49:24;;;;;;;2.30;1.80;;;;;;;;;;5118079;28;20221;-62
2022/08/26 06:51:54;;;;;;;3.30;1.80;;;;;;;;;;5117670;28;20269;-62
2022/08/26 06:54:22;;;;;;;3.70;2.13;;;;;;;;;;5118049;28;20237;-62
2022/08/26 06:56:50;;;;;;;3.33;1.80;;;;;;;;;;5117790;28;20248;-62
2022/08/26 06:59:18;;;;;;;2.87;1.70;;;;;;;;;;5118652;28;20640;-62
2022/08/26 07:01:46;;;;;;;1.70;1.60;;;;;;;;;;5121579;28;20270;-62
2022/08/26 07:04:17;;;;;;;3.43;1.60;;;;;;;;;;5121692;28;20240;-62
2022/08/26 07:06:50;;;;;;;2.80;1.73;;;;;;;;;;5121439;28;20231;-62
2022/08/26 07:09:20;;;;;;;3.17;1.50;;;;;;;;;;5121753;28;20212;-62
2022/08/26 07:11:50;;;;;;;2.50;1.77;;;;;;;;;;5121338;28;20204;-63
2022/08/26 07:14:18;;;;;;;4.27;2.00;;;;;;;;;;5121606;28;20350;-62
2022/08/26 07:16:48;;;;;;;5.90;2.10;;;;;;;;;;5117509;27;20206;-62
2022/08/26 07:19:18;;;;;;;3.53;1.80;;;;;;;;;;5100725;28;20321;-62
2022/08/26 07:21:58;;;;;;;3.37;1.90;;;;;;;;;;5120676;28;20210;-62
2022/08/26 07:24:26;;;;;;;1.67;1.57;;;;;;;;;;5107598;28;20285;-63
2022/08/26 07:26:58;;;;;;;2.30;2.00;;;;;;;;;;5121565;28;20201;-61
2022/08/26 07:29:26;;;;;;;2.20;2.00;;;;;;;;;;5121328;28;20208;-62
2022/08/26 07:31:54;;;;;;;1.77;1.67;;;;;;;;;;5121097;28;20210;-62
2022/08/26 07:34:25;;;;;;;2.37;2.10;;;;;;;;;;5121056;28;20308;-62
2022/08/26 07:36:53;;;;;;;1.63;1.53;;;;;;;;;;5120960;28;20202;-63
2022/08/26 07:39:22;;;;;;;2.43;1.70;;;;;;;;;;5116235;28;20563;-63
2022/08/26 07:41:51;;;;;;;1.60;1.50;;;;;;;;;;5119066;28;20287;-62
2022/08/26 07:44:19;;;;;;;2.13;1.90;;;;;;;;;;5119009;28;20355;-62
2022/08/26 07:46:48;;;;;;;5.27;2.10;;;;;;;;;;5120359;28;20203;-63
2022/08/26 07:49:20;;;;;;;5.80;2.27;;;;;;;;;;5120404;28;20616;-62
2022/08/26 07:51:50;;;;;;;2.03;1.77;;;;;;;;;;5120189;28;20653;-62
2022/08/26 07:54:18;;;;;;;2.67;1.70;;;;;;;;;;5120359;28;20579;-63
2022/08/26 07:56:47;;;;;;;4.27;1.80;;;;;;;;;;5120156;27;20204;-62
2022/08/26 07:59:15;;;;;;;2.10;1.80;;;;;;;;;;5120200;28;20208;-63
2022/08/26 08:01:44;;;;;;;2.60;2.20;;;;;;;;;;5120093;27;20214;-62
2022/08/26 08:04:12;;;;;;;1.70;1.60;;;;;;;;;;5120315;28;20265;-62
2022/08/26 08:06:40;;;;;;;3.63;1.80;;;;;;;;;;5119256;28;20642;-63
2022/08/26 08:09:12;;;;;;;2.73;1.80;;;;;;;;;;5119649;28;20215;-62
2022/08/26 08:11:43;;;;;;;3.47;1.87;;;;;;;;;;5117925;28;20207;-62
2022/08/26 08:14:11;;;;;;;3.27;1.80;;;;;;;;;;5118502;28;20233;-62
2022/08/26 08:16:39;;;;;;;3.67;1.83;;;;;;;;;;5118517;28;20233;-62
2022/08/26 08:19:14;;;;;;;7.03;2.17;;;;;;;;;;5101667;28;20204;-63
2022/08/26 08:21:42;;;;;;;2.00;1.60;;;;;;;;;;5115220;28;20742;-62
2022/08/26 08:24:10;;;;;;;2.67;1.80;;;;;;;;;;5107447;28;20260;-62
2022/08/26 08:26:40;;;;;;;3.73;1.60;;;;;;;;;;5099706;28;20216;-62
2022/08/26 08:29:08;;;;;;;2.70;1.57;;;;;;;;;;5099866;28;20248;-62
2022/08/26 08:31:36;;;;;;;3.30;1.57;;;;;;;;;;5099713;28;20298;-63
2022/08/26 08:34:24;;;;;;;1.93;1.70;;;;;;;;;;5099626;28;20233;-62
2022/08/26 08:36:53;;;;;;;3.40;1.73;;;;;;;;;;5099462;28;20211;-63
2022/08/26 08:39:21;;;;;;;1.80;1.70;;;;;;;;;;5115457;28;20255;-62
2022/08/26 08:41:57;;;;;;;2.03;1.60;;;;;;;;;;5119707;27;20261;-63
2022/08/26 08:44:26;;;;;;;2.33;1.70;;;;;;;;;;5119729;28;20266;-63
2022/08/26 08:46:56;;;;;;;2.43;1.50;;;;;;;;;;5119730;28;20216;-63
2022/08/26 08:49:25;;;;;;;5.63;1.60;;;;;;;;;;5119546;28;20670;-62
2022/08/26 08:51:56;;;;;;;1.83;1.50;;;;;;;;;;5119307;28;20239;-62
2022/08/26 08:54:25;;;;;;;4.07;1.87;;;;;;;;;;5119675;28;20219;-63
2022/08/26 08:56:57;;;;;;;1.77;1.53;;;;;;;;;;5119370;28;20230;-62
2022/08/26 08:59:30;;;;;;;3.47;1.90;;;;;;;;;;5119635;28;20206;-63
2022/08/26 09:02:05;;;;;;;2.67;1.93;;;;;;;;;;5119641;28;20217;-63
2022/08/26 09:04:42;;;;;;;4.03;1.77;;;;;;;;;;5119412;28;20228;-63
2022/08/26 09:07:13;;;;;;;2.80;1.90;;;;;;;;;;5118809;27;20242;-62
2022/08/26 09:09:44;;;;;;;6.43;1.90;;;;;;;;;;5119483;28;20202;-62
2022/08/26 09:12:15;;;;;;;2.90;1.70;;;;;;;;;;5119270;28;20230;-63
2022/08/26 09:14:47;;;;;;;3.50;2.40;;;;;;;;;;5119307;27;20261;-63
2022/08/26 09:17:21;;;;;;;2.57;1.93;;;;;;;;;;5111801;28;20200;-63
2022/08/26 09:19:51;;;;;;;2.77;1.80;;;;;;;;;;5100544;28;20250;-63
2022/08/26 09:22:29;;;;;;;3.73;2.30;;;;;;;;;;5118615;28;20255;-62
2022/08/26 09:24:57;;;;;;;1.80;1.70;;;;;;;;;;5100321;28;20268;-63
2022/08/26 09:27:43;;;;;;;2.13;1.63;;;;;;;;;;5098331;28;20252;-63
2022/08/26 09:30:13;;;;;;;2.23;1.43;;;;;;;;;;5098433;28;20214;-62
2022/08/26 09:32:43;;;;;;;5.37;2.00;;;;;;;;;;5098327;28;20259;-62
2022/08/26 09:35:25;;;;;;;1.47;1.37;;;;;;;;;;5098183;28;20939;-62
2022/08/26 09:37:54;;;;;;;2.73;1.90;;;;;;;;;;5102421;28;20203;-63
2022/08/26 09:40:25;;;;;;;3.10;1.90;;;;;;;;;;5118903;28;20235;-63
2022/08/26 09:43:14;;;;;;;4.40;2.00;;;;;;;;;;5118450;28;20290;-62
2022/08/26 09:45:54;;;;;;;2.13;1.73;;;;;;;;;;5118577;28;20238;-63
2022/08/26 09:48:28;;;;;;;1.73;1.50;;;;;;;;;;5118465;28;20633;-62
2022/08/26 09:50:57;;;;;;;2.80;1.57;;;;;;;;;;5118405;28;20247;-63
2022/08/26 09:53:27;;;;;;;3.77;1.70;;;;;;;;;;5118246;28;20725;-62
2022/08/26 09:56:14;;;;;;;4.40;1.90;;;;;;;;;;5118374;28;20207;-63
2022/08/26 09:58:45;;;;;;;2.00;1.70;;;;;;;;;;5118838;28;20244;-63
2022/08/26 10:01:24;;;;;;;2.43;1.93;;;;;;;;;;5118391;28;20206;-62
2022/08/26 10:03:52;;;;;;;2.00;1.67;;;;;;;;;;5118598;28;20220;-62
2022/08/26 10:06:23;;;;;;;3.53;1.70;;;;;;;;;;5118173;28;20246;-62
2022/08/26 10:08:52;;;;;;;2.70;1.57;;;;;;;;;;5118474;28;20207;-62
2022/08/26 10:11:24;;;;;;;2.03;1.77;;;;;;;;;;5118323;28;20238;-62
2022/08/26 10:13:56;;;;;;;2.10;1.90;;;;;;;;;;5118105;28;20732;-62
2022/08/26 10:16:28;;;;;;;2.03;1.60;;;;;;;;;;5115691;28;20191;-62
2022/08/26 10:18:59;;;;;;;5.97;1.67;;;;;;;;;;5106669;28;20213;-62
2022/08/26 10:21:29;;;;;;;3.20;1.93;;;;;;;;;;5116797;28;20204;-62
2022/08/26 10:23:58;;;;;;;1.70;1.60;;;;;;;;;;5111035;28;20253;-63
2022/08/26 10:26:32;;;;;;;6.47;1.73;;;;;;;;;;5097619;28;20228;-62
2022/08/26 10:29:08;;;;;;;3.37;1.87;;;;;;;;;;5097586;28;20671;-62
2022/08/26 10:31:39;;;;;;;2.60;2.40;;;;;;;;;;5097528;28;20254;-62
2022/08/26 10:34:09;;;;;;;3.93;1.90;;;;;;;;;;5098378;28;20231;-62
2022/08/26 10:36:50;;;;;;;1.70;1.60;;;;;;;;;;5101599;28;20208;-62
2022/08/26 10:39:41;;;;;;;2.20;1.90;;;;;;;;;;5117869;28;20300;-62
2022/08/26 10:42:16;;;;;;;2.27;1.90;;;;;;;;;;5121793;28;20208;-60
2022/08/26 10:44:48;;;;;;;2.03;1.70;;;;;;;;;;5121704;28;20234;-62
2022/08/26 10:47:17;;;;;;;3.90;1.90;;;;;;;;;;5120678;28;20208;-62
2022/08/26 10:49:47;;;;;;;2.37;1.90;;;;;;;;;;5114203;28;20668;-62
2022/08/26 10:52:17;;;;;;;3.87;1.90;;;;;;;;;;5112999;28;20240;-62
2022/08/26 10:54:48;;;;;;;4.07;1.60;;;;;;;;;;5119881;28;20252;-63
2022/08/26 10:57:20;;;;;;;5.27;2.10;;;;;;;;;;5119728;28;20599;-62
2022/08/26 10:59:53;;;;;;;3.70;1.70;;;;;;;;;;5111350;28;20210;-62
2022/08/26 11:02:24;;;;;;;2.20;1.90;;;;;;;;;;5100717;28;20293;-62
2022/08/26 11:04:54;;;;;;;1.93;1.80;;;;;;;;;;5101223;28;20262;-62
2022/08/26 11:07:29;;;;;;;2.77;1.90;;;;;;;;;;5100988;28;20716;-62
2022/08/26 11:09:59;;;;;;;2.00;1.83;;;;;;;;;;5101323;28;20206;-62
2022/08/26 11:12:46;;;;;;;3.00;2.43;;;;;;;;;;5101004;28;20687;-62
2022/08/26 11:15:30;;;;;;;4.10;2.23;;;;;;;;;;5101122;28;20216;-62
2022/08/26 11:18:02;;;;;;;2.50;2.10;;;;;;;;;;5118920;28;20210;-62
2022/08/26 11:20:31;;;;;;;2.73;2.20;;;;;;;;;;5121405;28;20269;-61
2022/08/26 11:23:14;;;;;;;2.83;2.03;;;;;;;;;;5121115;28;20672;-62
2022/08/26 11:26:13;;;;;;;2.10;1.90;;;;;;;;;;5109447;28;20268;-62
2022/08/26 11:29:01;;;;;;;4.83;2.60;;;;;;;;;;5121331;28;20207;-62
2022/08/26 11:31:49;;;;;;;2.60;2.40;;;;;;;;;;5121080;28;20243;-63
2022/08/26 11:34:38;;;;;;;4.20;2.43;;;;;;;;;;5120867;28;20256;-63
2022/08/26 11:37:12;;;;;;;2.83;2.10;;;;;;;;;;5120612;28;20629;-63
2022/08/26 11:39:47;;;;;;;3.73;2.13;;;;;;;;;;5121114;28;20210;-63
2022/08/26 11:42:27;;;;;;;3.33;2.80;;;;;;;;;;5120797;28;20218;-62
2022/08/26 11:44:55;;;;;;;2.50;2.30;;;;;;;;;;5121025;28;20267;-62
2022/08/26 11:47:29;;;;;;;2.40;2.30;;;;;;;;;;5119673;28;20232;-62
2022/08/26 11:50:07;;;;;;;2.87;2.13;;;;;;;;;;5120463;28;20206;-62
2022/08/26 11:52:36;;;;;;;3.40;2.27;;;;;;;;;;5120620;28;20278;-62
2022/08/26 11:55:06;;;;;;;2.80;2.37;;;;;;;;;;5120825;28;20246;-62
2022/08/26 11:57:36;;;;;;;3.20;2.20;;;;;;;;;;5120570;28;20256;-62
2022/08/26 12:00:05;;;;;;;3.97;2.03;;;;;;;;;;5120816;28;20207;-62
2022/08/26 12:02:39;;;;;;;3.47;2.10;;;;;;;;;;5120732;28;20234;-62
2022/08/26 12:05:07;;;;;;;3.80;2.10;;;;;;;;;;5120310;28;20242;-62
2022/08/26 12:07:37;;;;;;;4.27;2.47;;;;;;;;;;5120196;28;20589;-63
2022/08/26 12:10:10;;;;;;;4.73;2.90;;;;;;;;;;5120498;28;20270;-62
2022/08/26 12:12:39;;;;;;;3.50;2.93;;;;;;;;;;5120137;28;20689;-62
2022/08/26 12:15:09;;;;;;;2.23;2.03;;;;;;;;;;5120362;28;20311;-62
2022/08/26 12:17:38;;;;;;;3.83;2.40;;;;;;;;;;5107023;28;20670;-61
2022/08/26 12:20:16;;;;;;;2.47;1.97;;;;;;;;;;5116408;28;20212;-62
2022/08/26 12:22:46;;;;;;;3.90;1.77;;;;;;;;;;5119890;28;20202;-62
2022/08/26 12:25:21;;;;;;;3.70;2.90;;;;;;;;;;5100751;28;20211;-62
2022/08/26 12:27:50;;;;;;;3.63;2.30;;;;;;;;;;5099625;28;20296;-63
2022/08/26 12:30:21;;;;;;;3.47;2.10;;;;;;;;;;5099511;28;20213;-63
2022/08/26 12:32:50;;;;;;;3.07;2.13;;;;;;;;;;5099279;28;20297;-63
2022/08/26 12:35:27;;;;;;;2.60;2.30;;;;;;;;;;5099447;28;20240;-63
2022/08/26 12:37:57;;;;;;;2.80;2.43;;;;;;;;;;5099370;28;20683;-63
2022/08/26 12:40:34;;;;;;;2.70;2.47;;;;;;;;;;5099237;28;20330;-62
2022/08/26 12:43:03;;;;;;;2.77;2.07;;;;;;;;;;5099339;28;20240;-62
2022/08/26 12:45:32;;;;;;;5.00;2.37;;;;;;;;;;5099453;28;20212;-62
2022/08/26 12:48:02;;;;;;;2.20;1.93;;;;;;;;;;5098919;28;20308;-63
2022/08/26 12:50:32;;;;;;;3.40;2.53;;;;;;;;;;5099141;28;20202;-62
2022/08/26 12:53:02;;;;;;;1.90;1.80;;;;;;;;;;5098922;28;20261;-62
2022/08/26 12:55:35;;;;;;;2.40;2.20;;;;;;;;;;5099030;28;20219;-62
2022/08/26 12:58:11;;;;;;;2.03;1.93;;;;;;;;;;5099076;28;20289;-63
2022/08/26 13:00:40;;;;;;;3.17;2.20;;;;;;;;;;5099241;28;20207;-62
2022/08/26 13:03:23;;;;;;;3.00;2.20;;;;;;;;;;5099014;28;20214;-62
2022/08/26 13:05:51;;;;;;;4.03;2.00;;;;;;;;;;5098438;28;20235;-62
2022/08/26 13:08:26;;;;;;;3.00;2.00;;;;;;;;;;5099055;28;20282;-62
2022/08/26 13:11:03;;;;;;;4.53;2.30;;;;;;;;;;5098695;28;20719;-62
2022/08/26 13:13:31;;;;;;;3.13;1.90;;;;;;;;;;5098592;28;20232;-63
2022/08/26 13:15:59;;;;;;;8.90;2.40;;;;;;;;;;5099646;28;20268;-63
2022/08/26 13:18:28;;;;;;;2.67;2.30;;;;;;;;;;5118741;28;20806;-62
2022/08/26 13:20:56;;;;;;;3.23;2.60;;;;;;;;;;5118808;28;20209;-62
2022/08/26 13:23:24;;;;;;;2.53;2.33;;;;;;;;;;5115517;28;20664;-62
2022/08/26 13:25:54;;;;;;;3.87;2.27;;;;;;;;;;5098661;28;20208;-62
2022/08/26 13:28:22;;;;;;;3.73;2.30;;;;;;;;;;5098616;28;20245;-62
2022/08/26 13:30:50;;;;;;;4.63;2.00;;;;;;;;;;5098493;28;20690;-63
2022/08/26 13:33:20;;;;;;;3.80;2.30;;;;;;;;;;5098561;28;20254;-61
2022/08/26 13:35:48;;;;;;;2.10;2.00;;;;;;;;;;5098380;28;20259;-62
2022/08/26 13:38:16;;;;;;;3.37;2.40;;;;;;;;;;5098282;28;20201;-62
2022/08/26 13:41:02;;;;;;;2.47;2.30;;;;;;;;;;5098381;28;20209;-63
2022/08/26 13:43:30;;;;;;;3.97;2.08;;;;;;;;;;5098730;28;20231;-62
2022/08/26 13:46:00;;;;;;;2.38;2.20;;;;;;;;;;5098407;28;20206;-63
2022/08/26 13:48:28;;;;;;;4.43;2.35;;;;;;;;;;5098093;28;20722;-63
2022/08/26 13:50:57;;;;;;;2.63;2.30;;;;;;;;;;5098014;28;20207;-63
2022/08/26 13:53:25;;;;;;;2.63;2.35;;;;;;;;;;5097986;28;20225;-62
2022/08/26 13:55:53;;;;;;;4.85;2.72;;;;;;;;;;5097831;28;20666;-62
2022/08/26 13:58:22;;;;;;;2.72;2.22;;;;;;;;;;5098271;28;20260;-62
2022/08/26 14:00:52;;;;;;;4.13;2.28;;;;;;;;;;5098055;28;20205;-63
2022/08/26 14:03:20;;;;;;;4.15;2.28;;;;;;;;;;5097835;28;20228;-63
2022/08/26 14:05:48;;;;;;;5.88;2.33;;;;;;;;;;5097632;28;20299;-62
2022/08/26 14:08:17;;;;;;;2.85;1.98;;;;;;;;;;5097672;28;20279;-63
2022/08/26 14:10:46;;;;;;;5.10;2.00;;;;;;;;;;5097294;28;20257;-63
2022/08/26 14:13:15;;;;;;;4.10;2.28;;;;;;;;;;5113901;28;20218;-62
2022/08/26 14:15:44;;;;;;;2.10;1.90;;;;;;;;;;5117968;28;20607;-63
2022/08/26 14:18:14;;;;;;;1.85;1.75;;;;;;;;;;5111369;28;20613;-63
2022/08/26 14:20:45;;;;;;;3.45;2.00;;;;;;;;;;5117735;28;20522;-63
2022/08/26 14:23:13;;;;;;;6.88;1.98;;;;;;;;;;5116408;28;20228;-63
2022/08/26 14:25:41;;;;;;;2.35;2.20;;;;;;;;;;5112697;28;20193;-63
2022/08/26 14:28:10;;;;;;;2.55;1.83;;;;;;;;;;5111868;28;20225;-63
2022/08/26 14:30:39;;;;;;;3.08;2.20;;;;;;;;;;5117260;28;20260;-63
2022/08/26 14:33:10;;;;;;;3.05;2.45;;;;;;;;;;5117192;28;20264;-62
2022/08/26 14:35:41;;;;;;;2.20;1.95;;;;;;;;;;5117609;28;20231;-63
2022/08/26 14:38:15;;;;;;;2.60;2.40;;;;;;;;;;5117829;28;20224;-62
2022/08/26 14:40:44;;;;;;;3.45;2.25;;;;;;;;;;5117731;28;20210;-62
2022/08/26 14:43:13;;;;;;;2.00;1.77;;;;;;;;;;5117553;28;20591;-63
2022/08/26 14:45:42;;;;;;;2.27;1.80;;;;;;;;;;5117708;28;20235;-63
2022/08/26 14:48:12;;;;;;;2.73;1.93;;;;;;;;;;5117703;28;20226;-63
2022/08/26 14:50:40;;;;;;;2.10;1.90;;;;;;;;;;5117393;28;20212;-63
2022/08/26 14:55:54;;;;;;;4.20;2.30;;;;;;;;;;5118084;28;20204;-63
2022/08/26 14:58:22;;;;;;;2.37;2.17;;;;;;;;;;5117771;28;20207;-63
2022/08/26 15:00:50;;;;;;;2.63;1.90;;;;;;;;;;5117848;28;20648;-62
2022/08/26 15:03:19;;;;;;;5.03;2.13;;;;;;;;;;5118018;28;20232;-63
2022/08/26 15:05:47;;;;;;;2.17;1.97;;;;;;;;;;5117414;28;20264;-62
2022/08/26 15:08:15;;;;;;;2.30;2.10;;;;;;;;;;5117911;28;20273;-63
2022/08/26 15:10:43;;;;;;;2.30;2.10;;;;;;;;;;5117491;28;20317;-63
2022/08/26 15:13:11;;;;;;;3.80;2.30;;;;;;;;;;5117800;28;20278;-63